sensor_id;sensor_type;location;lat;lon;timestamp;P1;durP1;ratioP1;P2;durP2;ratioP2
59302;SDS011;45074;52.764;6.896;2022-09-03T00:01:00;3.78;;;1.42;;
59302;SDS011;45074;52.764;6.896;2022-09-03T00:03:46;3.05;;;1.60;;
59302;SDS011;45074;52.764;6.896;2022-09-03T00:06:23;4.43;;;1.40;;
59302;SDS011;45074;52.764;6.896;2022-09-03T00:09:02;2.75;;;1.45;;
59302;SDS011;45074;52.764;6.896;2022-09-03T00:14:41;3.40;;;1.35;;
59302;SDS011;45074;52.764;6.896;2022-09-03T00:17:19;4.38;;;1.20;;
59302;SDS011;45074;52.764;6.896;2022-09-03T00:20:06;4.28;;;1.48;;
59302;SDS011;45074;52.764;6.896;2022-09-03T00:22:40;5.03;;;1.50;;
59302;SDS011;45074;52.764;6.896;2022-09-03T00:25:11;3.50;;;1.30;;
59302;SDS011;45074;52.764;6.896;2022-09-03T00:27:40;3.80;;;1.30;;
59302;SDS011;45074;52.764;6.896;2022-09-03T00:30:10;2.63;;;1.15;;
59302;SDS011;45074;52.764;6.896;2022-09-03T00:32:42;1.73;;;1.10;;
59302;SDS011;45074;52.764;6.896;2022-09-03T00:35:16;2.83;;;1.40;;
59302;SDS011;45074;52.764;6.896;2022-09-03T00:37:51;2.92;;;1.40;;
59302;SDS011;45074;52.764;6.896;2022-09-03T00:48:52;2.83;;;1.30;;
59302;SDS011;45074;52.764;6.896;2022-09-03T00:54:22;4.20;;;1.45;;
59302;SDS011;45074;52.764;6.896;2022-09-03T01:05:12;4.45;;;1.58;;
59302;SDS011;45074;52.764;6.896;2022-09-03T01:18:48;2.00;;;1.20;;
59302;SDS011;45074;52.764;6.896;2022-09-03T01:34:15;2.53;;;1.60;;
59302;SDS011;45074;52.764;6.896;2022-09-03T01:39:54;3.83;;;1.42;;
59302;SDS011;45074;52.764;6.896;2022-09-03T01:42:36;3.38;;;1.30;;
59302;SDS011;45074;52.764;6.896;2022-09-03T01:51:01;3.92;;;1.60;;
59302;SDS011;45074;52.764;6.896;2022-09-03T01:59:30;3.05;;;1.23;;
59302;SDS011;45074;52.764;6.896;2022-09-03T02:07:27;2.42;;;1.20;;
59302;SDS011;45074;52.764;6.896;2022-09-03T02:09:58;3.28;;;1.30;;
59302;SDS011;45074;52.764;6.896;2022-09-03T02:12:25;5.28;;;1.80;;
59302;SDS011;45074;52.764;6.896;2022-09-03T02:14:53;4.25;;;1.40;;
59302;SDS011;45074;52.764;6.896;2022-09-03T02:17:19;2.70;;;1.30;;
59302;SDS011;45074;52.764;6.896;2022-09-03T02:19:45;2.28;;;1.27;;
59302;SDS011;45074;52.764;6.896;2022-09-03T02:22:11;2.40;;;1.50;;
59302;SDS011;45074;52.764;6.896;2022-09-03T02:24:37;3.50;;;1.60;;
59302;SDS011;45074;52.764;6.896;2022-09-03T02:27:03;2.10;;;1.40;;
59302;SDS011;45074;52.764;6.896;2022-09-03T02:29:29;2.95;;;1.30;;
59302;SDS011;45074;52.764;6.896;2022-09-03T02:31:55;2.78;;;1.40;;
59302;SDS011;45074;52.764;6.896;2022-09-03T02:34:22;2.50;;;1.40;;
59302;SDS011;45074;52.764;6.896;2022-09-03T02:36:48;2.63;;;1.40;;
59302;SDS011;45074;52.764;6.896;2022-09-03T02:39:14;3.92;;;1.48;;
59302;SDS011;45074;52.764;6.896;2022-09-03T02:41:40;3.72;;;1.50;;
59302;SDS011;45074;52.764;6.896;2022-09-03T02:44:12;4.82;;;1.58;;
59302;SDS011;45074;52.764;6.896;2022-09-03T02:46:51;4.35;;;1.38;;
59302;SDS011;45074;52.764;6.896;2022-09-03T02:49:21;3.53;;;1.27;;
59302;SDS011;45074;52.764;6.896;2022-09-03T02:51:47;3.70;;;1.50;;
59302;SDS011;45074;52.764;6.896;2022-09-03T02:54:13;3.35;;;1.65;;
59302;SDS011;45074;52.764;6.896;2022-09-03T02:56:39;4.28;;;1.50;;
59302;SDS011;45074;52.764;6.896;2022-09-03T02:59:07;2.58;;;1.50;;
59302;SDS011;45074;52.764;6.896;2022-09-03T03:01:33;3.55;;;1.50;;
59302;SDS011;45074;52.764;6.896;2022-09-03T03:04:00;3.92;;;1.60;;
59302;SDS011;45074;52.764;6.896;2022-09-03T03:06:26;3.53;;;1.50;;
59302;SDS011;45074;52.764;6.896;2022-09-03T03:08:52;2.60;;;1.50;;
59302;SDS011;45074;52.764;6.896;2022-09-03T03:11:21;2.75;;;1.35;;
59302;SDS011;45074;52.764;6.896;2022-09-03T03:13:49;3.00;;;1.70;;
59302;SDS011;45074;52.764;6.896;2022-09-03T03:16:15;4.53;;;1.38;;
59302;SDS011;45074;52.764;6.896;2022-09-03T03:18:42;2.58;;;1.58;;
59302;SDS011;45074;52.764;6.896;2022-09-03T03:21:11;2.88;;;1.60;;
59302;SDS011;45074;52.764;6.896;2022-09-03T03:23:38;2.25;;;1.20;;
59302;SDS011;45074;52.764;6.896;2022-09-03T03:26:05;4.32;;;1.33;;
59302;SDS011;45074;52.764;6.896;2022-09-03T03:28:32;4.80;;;1.60;;
59302;SDS011;45074;52.764;6.896;2022-09-03T03:33:54;2.78;;;1.40;;
59302;SDS011;45074;52.764;6.896;2022-09-03T03:36:25;3.13;;;1.55;;
59302;SDS011;45074;52.764;6.896;2022-09-03T03:38:53;2.67;;;1.40;;
59302;SDS011;45074;52.764;6.896;2022-09-03T03:41:20;5.80;;;1.60;;
59302;SDS011;45074;52.764;6.896;2022-09-03T03:43:54;2.92;;;1.50;;
59302;SDS011;45074;52.764;6.896;2022-09-03T03:46:22;2.65;;;1.50;;
59302;SDS011;45074;52.764;6.896;2022-09-03T03:48:49;2.58;;;1.40;;
59302;SDS011;45074;52.764;6.896;2022-09-03T03:51:16;3.40;;;1.52;;
59302;SDS011;45074;52.764;6.896;2022-09-03T03:53:42;3.55;;;1.40;;
59302;SDS011;45074;52.764;6.896;2022-09-03T03:56:09;2.60;;;1.58;;
59302;SDS011;45074;52.764;6.896;2022-09-03T03:58:37;2.03;;;1.42;;
59302;SDS011;45074;52.764;6.896;2022-09-03T04:01:15;2.58;;;1.40;;
59302;SDS011;45074;52.764;6.896;2022-09-03T04:03:45;2.88;;;1.52;;
59302;SDS011;45074;52.764;6.896;2022-09-03T04:06:12;4.20;;;1.60;;
59302;SDS011;45074;52.764;6.896;2022-09-03T04:08:40;4.10;;;1.50;;
59302;SDS011;45074;52.764;6.896;2022-09-03T04:11:08;3.50;;;1.48;;
59302;SDS011;45074;52.764;6.896;2022-09-03T04:13:38;3.45;;;1.50;;
59302;SDS011;45074;52.764;6.896;2022-09-03T04:16:06;2.47;;;1.38;;
59302;SDS011;45074;52.764;6.896;2022-09-03T04:18:34;3.25;;;1.60;;
59302;SDS011;45074;52.764;6.896;2022-09-03T04:21:01;2.90;;;1.50;;
59302;SDS011;45074;52.764;6.896;2022-09-03T04:23:29;1.65;;;1.40;;
59302;SDS011;45074;52.764;6.896;2022-09-03T04:26:02;3.22;;;1.50;;
59302;SDS011;45074;52.764;6.896;2022-09-03T04:28:28;3.38;;;1.50;;
59302;SDS011;45074;52.764;6.896;2022-09-03T04:30:54;2.90;;;1.60;;
59302;SDS011;45074;52.764;6.896;2022-09-03T04:33:24;3.72;;;1.60;;
59302;SDS011;45074;52.764;6.896;2022-09-03T04:35:50;2.75;;;1.70;;
59302;SDS011;45074;52.764;6.896;2022-09-03T04:38:16;3.50;;;1.58;;
59302;SDS011;45074;52.764;6.896;2022-09-03T04:40:41;4.20;;;1.70;;
59302;SDS011;45074;52.764;6.896;2022-09-03T04:43:07;3.80;;;1.70;;
59302;SDS011;45074;52.764;6.896;2022-09-03T04:45:33;4.25;;;1.80;;
59302;SDS011;45074;52.764;6.896;2022-09-03T04:47:59;4.28;;;1.75;;
59302;SDS011;45074;52.764;6.896;2022-09-03T04:50:26;4.47;;;1.70;;
59302;SDS011;45074;52.764;6.896;2022-09-03T04:52:53;2.95;;;1.70;;
59302;SDS011;45074;52.764;6.896;2022-09-03T04:55:22;3.78;;;1.80;;
59302;SDS011;45074;52.764;6.896;2022-09-03T04:57:48;3.85;;;1.63;;
59302;SDS011;45074;52.764;6.896;2022-09-03T05:00:13;2.20;;;1.73;;
59302;SDS011;45074;52.764;6.896;2022-09-03T05:02:42;4.38;;;1.80;;
59302;SDS011;45074;52.764;6.896;2022-09-03T05:05:12;4.13;;;1.95;;
59302;SDS011;45074;52.764;6.896;2022-09-03T05:07:41;3.00;;;1.63;;
59302;SDS011;45074;52.764;6.896;2022-09-03T05:10:08;3.53;;;2.13;;
59302;SDS011;45074;52.764;6.896;2022-09-03T05:12:40;3.85;;;2.00;;
59302;SDS011;45074;52.764;6.896;2022-09-03T05:15:06;4.00;;;1.80;;
59302;SDS011;45074;52.764;6.896;2022-09-03T05:17:32;4.68;;;2.17;;
59302;SDS011;45074;52.764;6.896;2022-09-03T05:19:58;3.70;;;1.98;;
59302;SDS011;45074;52.764;6.896;2022-09-03T05:22:23;4.25;;;2.05;;
59302;SDS011;45074;52.764;6.896;2022-09-03T05:24:49;3.78;;;1.80;;
59302;SDS011;45074;52.764;6.896;2022-09-03T05:27:15;5.13;;;2.13;;
59302;SDS011;45074;52.764;6.896;2022-09-03T05:29:41;4.60;;;2.05;;
59302;SDS011;45074;52.764;6.896;2022-09-03T05:32:08;4.85;;;2.25;;
59302;SDS011;45074;52.764;6.896;2022-09-03T05:34:34;4.05;;;2.13;;
59302;SDS011;45074;52.764;6.896;2022-09-03T05:36:59;7.25;;;1.90;;
59302;SDS011;45074;52.764;6.896;2022-09-03T05:39:25;3.95;;;1.95;;
59302;SDS011;45074;52.764;6.896;2022-09-03T05:41:50;4.00;;;2.10;;
59302;SDS011;45074;52.764;6.896;2022-09-03T05:44:17;5.40;;;2.10;;
59302;SDS011;45074;52.764;6.896;2022-09-03T05:46:45;4.78;;;2.20;;
59302;SDS011;45074;52.764;6.896;2022-09-03T05:49:11;5.35;;;2.30;;
59302;SDS011;45074;52.764;6.896;2022-09-03T05:51:37;4.93;;;2.13;;
59302;SDS011;45074;52.764;6.896;2022-09-03T05:54:04;3.72;;;2.25;;
59302;SDS011;45074;52.764;6.896;2022-09-03T05:56:31;4.25;;;2.10;;
59302;SDS011;45074;52.764;6.896;2022-09-03T05:59:00;3.58;;;2.25;;
59302;SDS011;45074;52.764;6.896;2022-09-03T06:01:27;6.82;;;2.58;;
59302;SDS011;45074;52.764;6.896;2022-09-03T06:03:56;5.70;;;2.40;;
59302;SDS011;45074;52.764;6.896;2022-09-03T06:06:24;5.05;;;2.30;;
59302;SDS011;45074;52.764;6.896;2022-09-03T06:08:51;4.75;;;2.28;;
59302;SDS011;45074;52.764;6.896;2022-09-03T06:11:22;4.70;;;2.60;;
59302;SDS011;45074;52.764;6.896;2022-09-03T06:13:52;5.38;;;2.40;;
59302;SDS011;45074;52.764;6.896;2022-09-03T06:16:18;5.22;;;2.28;;
59302;SDS011;45074;52.764;6.896;2022-09-03T06:18:44;4.13;;;2.38;;
59302;SDS011;45074;52.764;6.896;2022-09-03T06:21:09;3.60;;;2.42;;
59302;SDS011;45074;52.764;6.896;2022-09-03T06:23:35;4.40;;;2.40;;
59302;SDS011;45074;52.764;6.896;2022-09-03T06:26:05;4.13;;;2.33;;
59302;SDS011;45074;52.764;6.896;2022-09-03T06:28:32;4.55;;;2.25;;
59302;SDS011;45074;52.764;6.896;2022-09-03T06:31:00;4.50;;;2.30;;
59302;SDS011;45074;52.764;6.896;2022-09-03T06:33:28;3.38;;;2.47;;
59302;SDS011;45074;52.764;6.896;2022-09-03T06:35:55;4.78;;;2.15;;
59302;SDS011;45074;52.764;6.896;2022-09-03T06:38:22;3.47;;;1.95;;
59302;SDS011;45074;52.764;6.896;2022-09-03T06:40:55;4.68;;;2.20;;
59302;SDS011;45074;52.764;6.896;2022-09-03T06:43:32;4.22;;;2.28;;
59302;SDS011;45074;52.764;6.896;2022-09-03T06:46:00;5.10;;;2.60;;
59302;SDS011;45074;52.764;6.896;2022-09-03T06:48:29;5.50;;;2.30;;
59302;SDS011;45074;52.764;6.896;2022-09-03T06:50:57;5.57;;;2.40;;
59302;SDS011;45074;52.764;6.896;2022-09-03T06:53:31;4.97;;;2.33;;
59302;SDS011;45074;52.764;6.896;2022-09-03T06:56:00;5.35;;;2.30;;
59302;SDS011;45074;52.764;6.896;2022-09-03T06:58:31;4.25;;;2.17;;
59302;SDS011;45074;52.764;6.896;2022-09-03T07:03:36;5.22;;;2.40;;
59302;SDS011;45074;52.764;6.896;2022-09-03T07:06:04;6.20;;;2.42;;
59302;SDS011;45074;52.764;6.896;2022-09-03T07:08:34;6.00;;;2.38;;
59302;SDS011;45074;52.764;6.896;2022-09-03T07:11:01;5.60;;;2.38;;
59302;SDS011;45074;52.764;6.896;2022-09-03T07:13:30;4.32;;;2.38;;
59302;SDS011;45074;52.764;6.896;2022-09-03T07:16:01;6.35;;;2.40;;
59302;SDS011;45074;52.764;6.896;2022-09-03T07:18:29;6.35;;;2.20;;
59302;SDS011;45074;52.764;6.896;2022-09-03T07:21:02;4.93;;;2.20;;
59302;SDS011;45074;52.764;6.896;2022-09-03T07:23:32;3.72;;;1.77;;
59302;SDS011;45074;52.764;6.896;2022-09-03T07:26:00;2.85;;;1.90;;
59302;SDS011;45074;52.764;6.896;2022-09-03T07:28:27;4.93;;;2.20;;
59302;SDS011;45074;52.764;6.896;2022-09-03T07:30:59;4.47;;;2.10;;
59302;SDS011;45074;52.764;6.896;2022-09-03T07:33:27;4.93;;;1.98;;
59302;SDS011;45074;52.764;6.896;2022-09-03T07:35:53;2.92;;;1.90;;
59302;SDS011;45074;52.764;6.896;2022-09-03T07:38:19;4.53;;;2.03;;
59302;SDS011;45074;52.764;6.896;2022-09-03T07:40:47;5.57;;;2.10;;
59302;SDS011;45074;52.764;6.896;2022-09-03T07:43:13;3.92;;;1.80;;
59302;SDS011;45074;52.764;6.896;2022-09-03T07:45:38;3.75;;;1.83;;
59302;SDS011;45074;52.764;6.896;2022-09-03T07:48:04;5.70;;;2.00;;
59302;SDS011;45074;52.764;6.896;2022-09-03T07:50:30;4.53;;;1.80;;
59302;SDS011;45074;52.764;6.896;2022-09-03T07:53:01;3.85;;;2.13;;
59302;SDS011;45074;52.764;6.896;2022-09-03T07:55:27;4.10;;;2.00;;
59302;SDS011;45074;52.764;6.896;2022-09-03T07:57:56;4.90;;;1.80;;
59302;SDS011;45074;52.764;6.896;2022-09-03T08:00:23;3.80;;;1.98;;
59302;SDS011;45074;52.764;6.896;2022-09-03T08:02:50;3.38;;;1.90;;
59302;SDS011;45074;52.764;6.896;2022-09-03T08:05:16;3.63;;;2.00;;
59302;SDS011;45074;52.764;6.896;2022-09-03T08:07:45;4.82;;;2.17;;
59302;SDS011;45074;52.764;6.896;2022-09-03T08:10:11;3.83;;;1.80;;
59302;SDS011;45074;52.764;6.896;2022-09-03T08:12:37;3.85;;;1.70;;
59302;SDS011;45074;52.764;6.896;2022-09-03T08:15:03;4.03;;;2.08;;
59302;SDS011;45074;52.764;6.896;2022-09-03T08:17:29;4.15;;;1.83;;
59302;SDS011;45074;52.764;6.896;2022-09-03T08:19:55;3.38;;;1.77;;
59302;SDS011;45074;52.764;6.896;2022-09-03T08:22:22;3.75;;;1.65;;
59302;SDS011;45074;52.764;6.896;2022-09-03T08:24:49;3.88;;;1.60;;
59302;SDS011;45074;52.764;6.896;2022-09-03T08:27:15;5.95;;;1.92;;
59302;SDS011;45074;52.764;6.896;2022-09-03T08:29:47;4.43;;;1.85;;
59302;SDS011;45074;52.764;6.896;2022-09-03T08:32:13;5.30;;;1.90;;
59302;SDS011;45074;52.764;6.896;2022-09-03T08:34:39;4.88;;;1.65;;
59302;SDS011;45074;52.764;6.896;2022-09-03T08:37:05;4.20;;;1.70;;
59302;SDS011;45074;52.764;6.896;2022-09-03T08:39:33;5.13;;;2.00;;
59302;SDS011;45074;52.764;6.896;2022-09-03T08:52:54;4.00;;;1.80;;
59302;SDS011;45074;52.764;6.896;2022-09-03T08:55:48;3.85;;;1.60;;
59302;SDS011;45074;52.764;6.896;2022-09-03T08:58:15;3.63;;;1.70;;
59302;SDS011;45074;52.764;6.896;2022-09-03T09:06:25;4.15;;;1.83;;
59302;SDS011;45074;52.764;6.896;2022-09-03T09:11:35;3.05;;;1.58;;
59302;SDS011;45074;52.764;6.896;2022-09-03T09:14:25;3.10;;;1.50;;
59302;SDS011;45074;52.764;6.896;2022-09-03T09:20:04;5.13;;;1.73;;
59302;SDS011;45074;52.764;6.896;2022-09-03T09:22:42;4.22;;;1.52;;
59302;SDS011;45074;52.764;6.896;2022-09-03T09:25:12;3.67;;;1.50;;
59302;SDS011;45074;52.764;6.896;2022-09-03T09:27:51;4.35;;;1.70;;
59302;SDS011;45074;52.764;6.896;2022-09-03T09:30:22;4.57;;;1.70;;
59302;SDS011;45074;52.764;6.896;2022-09-03T09:32:48;2.97;;;1.60;;
59302;SDS011;45074;52.764;6.896;2022-09-03T09:35:14;3.00;;;1.60;;
59302;SDS011;45074;52.764;6.896;2022-09-03T09:37:51;3.63;;;1.75;;
59302;SDS011;45074;52.764;6.896;2022-09-03T09:40:28;3.90;;;1.45;;
59302;SDS011;45074;52.764;6.896;2022-09-03T09:43:02;4.75;;;1.63;;
59302;SDS011;45074;52.764;6.896;2022-09-03T09:45:45;3.22;;;1.55;;
59302;SDS011;45074;52.764;6.896;2022-09-03T09:48:15;3.42;;;1.60;;
59302;SDS011;45074;52.764;6.896;2022-09-03T09:51:20;4.25;;;1.50;;
59302;SDS011;45074;52.764;6.896;2022-09-03T09:53:59;4.05;;;1.50;;
59302;SDS011;45074;52.764;6.896;2022-09-03T09:56:34;4.25;;;1.50;;
59302;SDS011;45074;52.764;6.896;2022-09-03T09:59:04;3.25;;;1.52;;
59302;SDS011;45074;52.764;6.896;2022-09-03T10:01:32;3.10;;;1.30;;
59302;SDS011;45074;52.764;6.896;2022-09-03T10:03:59;3.85;;;1.38;;
59302;SDS011;45074;52.764;6.896;2022-09-03T10:06:32;5.57;;;1.45;;
59302;SDS011;45074;52.764;6.896;2022-09-03T10:09:39;4.90;;;1.50;;
59302;SDS011;45074;52.764;6.896;2022-09-03T10:12:08;2.28;;;1.15;;
59302;SDS011;45074;52.764;6.896;2022-09-03T10:15:01;3.17;;;1.50;;
59302;SDS011;45074;52.764;6.896;2022-09-03T10:18:45;2.75;;;1.30;;
59302;SDS011;45074;52.764;6.896;2022-09-03T10:21:07;4.40;;;1.40;;
59302;SDS011;45074;52.764;6.896;2022-09-03T10:26:22;5.03;;;1.50;;
59302;SDS011;45074;52.764;6.896;2022-09-03T10:28:58;3.53;;;1.50;;
59302;SDS011;45074;52.764;6.896;2022-09-03T10:34:13;3.35;;;1.50;;
59302;SDS011;45074;52.764;6.896;2022-09-03T10:36:59;2.58;;;1.40;;
59302;SDS011;45074;52.764;6.896;2022-09-03T10:47:41;4.63;;;1.40;;
59302;SDS011;45074;52.764;6.896;2022-09-03T10:50:16;2.65;;;1.30;;
59302;SDS011;45074;52.764;6.896;2022-09-03T10:52:59;5.25;;;1.48;;
59302;SDS011;45074;52.764;6.896;2022-09-03T11:01:03;3.97;;;1.40;;
59302;SDS011;45074;52.764;6.896;2022-09-03T11:06:28;4.95;;;1.60;;
59302;SDS011;45074;52.764;6.896;2022-09-03T11:14:37;3.22;;;1.25;;
59302;SDS011;45074;52.764;6.896;2022-09-03T11:17:11;5.80;;;1.40;;
59302;SDS011;45074;52.764;6.896;2022-09-03T11:22:43;4.13;;;1.30;;
59302;SDS011;45074;52.764;6.896;2022-09-03T11:25:13;5.25;;;1.60;;
59302;SDS011;45074;52.764;6.896;2022-09-03T11:38:03;3.60;;;1.38;;
59302;SDS011;45074;52.764;6.896;2022-09-03T11:40:40;3.42;;;1.85;;
59302;SDS011;45074;52.764;6.896;2022-09-03T11:46:01;3.88;;;1.20;;
59302;SDS011;45074;52.764;6.896;2022-09-03T11:50:54;3.25;;;1.30;;
59302;SDS011;45074;52.764;6.896;2022-09-03T11:53:24;4.32;;;1.30;;
59302;SDS011;45074;52.764;6.896;2022-09-03T11:58:40;3.17;;;1.30;;
59302;SDS011;45074;52.764;6.896;2022-09-03T12:01:08;4.15;;;1.20;;
59302;SDS011;45074;52.764;6.896;2022-09-03T12:06:42;5.70;;;1.40;;
59302;SDS011;45074;52.764;6.896;2022-09-03T12:09:34;3.28;;;1.10;;
59302;SDS011;45074;52.764;6.896;2022-09-03T12:17:52;4.63;;;1.30;;
59302;SDS011;45074;52.764;6.896;2022-09-03T12:20:37;5.18;;;1.30;;
59302;SDS011;45074;52.764;6.896;2022-09-03T12:23:04;3.10;;;1.25;;
59302;SDS011;45074;52.764;6.896;2022-09-03T12:25:31;3.63;;;1.05;;
59302;SDS011;45074;52.764;6.896;2022-09-03T12:27:58;2.85;;;1.20;;
59302;SDS011;45074;52.764;6.896;2022-09-03T12:30:25;5.13;;;1.30;;
59302;SDS011;45074;52.764;6.896;2022-09-03T12:33:16;3.85;;;1.10;;
59302;SDS011;45074;52.764;6.896;2022-09-03T12:35:40;3.83;;;1.33;;
59302;SDS011;45074;52.764;6.896;2022-09-03T12:38:06;2.67;;;1.30;;
59302;SDS011;45074;52.764;6.896;2022-09-03T12:40:32;1.55;;;1.10;;
59302;SDS011;45074;52.764;6.896;2022-09-03T12:43:14;2.85;;;1.00;;
59302;SDS011;45074;52.764;6.896;2022-09-03T12:45:45;2.72;;;1.15;;
59302;SDS011;45074;52.764;6.896;2022-09-03T12:48:12;1.77;;;1.00;;
59302;SDS011;45074;52.764;6.896;2022-09-03T12:50:40;2.53;;;1.00;;
59302;SDS011;45074;52.764;6.896;2022-09-03T12:53:06;2.33;;;1.20;;
59302;SDS011;45074;52.764;6.896;2022-09-03T12:58:37;2.75;;;0.95;;
59302;SDS011;45074;52.764;6.896;2022-09-03T13:01:11;2.90;;;1.25;;
59302;SDS011;45074;52.764;6.896;2022-09-03T13:03:55;3.03;;;1.27;;
59302;SDS011;45074;52.764;6.896;2022-09-03T13:06:27;3.55;;;1.20;;
59302;SDS011;45074;52.764;6.896;2022-09-03T13:09:03;2.60;;;1.05;;
59302;SDS011;45074;52.764;6.896;2022-09-03T13:11:32;3.65;;;1.20;;
59302;SDS011;45074;52.764;6.896;2022-09-03T13:24:06;3.00;;;1.10;;
59302;SDS011;45074;52.764;6.896;2022-09-03T13:26:38;1.95;;;1.08;;
59302;SDS011;45074;52.764;6.896;2022-09-03T13:29:11;2.60;;;1.20;;
59302;SDS011;45074;52.764;6.896;2022-09-03T13:31:45;3.60;;;1.23;;
59302;SDS011;45074;52.764;6.896;2022-09-03T13:34:19;1.35;;;0.90;;
59302;SDS011;45074;52.764;6.896;2022-09-03T13:36:50;2.15;;;1.10;;
59302;SDS011;45074;52.764;6.896;2022-09-03T13:39:21;3.63;;;1.00;;
59302;SDS011;45074;52.764;6.896;2022-09-03T13:41:53;2.90;;;0.90;;
59302;SDS011;45074;52.764;6.896;2022-09-03T13:52:53;4.30;;;1.00;;
59302;SDS011;45074;52.764;6.896;2022-09-03T13:55:27;3.03;;;1.00;;
59302;SDS011;45074;52.764;6.896;2022-09-03T13:58:10;3.08;;;1.13;;
59302;SDS011;45074;52.764;6.896;2022-09-03T14:00:45;2.53;;;1.20;;
59302;SDS011;45074;52.764;6.896;2022-09-03T14:05:49;3.60;;;1.10;;
59302;SDS011;45074;52.764;6.896;2022-09-03T14:08:24;5.00;;;1.30;;
59302;SDS011;45074;52.764;6.896;2022-09-03T14:13:41;3.05;;;0.90;;
59302;SDS011;45074;52.764;6.896;2022-09-03T14:16:24;3.72;;;1.08;;
59302;SDS011;45074;52.764;6.896;2022-09-03T14:19:01;1.92;;;0.90;;
59302;SDS011;45074;52.764;6.896;2022-09-03T14:21:33;3.40;;;1.10;;
59302;SDS011;45074;52.764;6.896;2022-09-03T14:26:28;3.45;;;1.00;;
59302;SDS011;45074;52.764;6.896;2022-09-03T14:34:25;2.67;;;0.90;;
59302;SDS011;45074;52.764;6.896;2022-09-03T14:39:53;3.17;;;1.08;;
59302;SDS011;45074;52.764;6.896;2022-09-03T14:42:22;2.35;;;1.15;;
59302;SDS011;45074;52.764;6.896;2022-09-03T14:45:09;3.10;;;1.20;;
59302;SDS011;45074;52.764;6.896;2022-09-03T14:47:42;3.10;;;1.02;;
59302;SDS011;45074;52.764;6.896;2022-09-03T15:03:01;2.38;;;0.90;;
59302;SDS011;45074;52.764;6.896;2022-09-03T15:05:43;2.65;;;1.00;;
59302;SDS011;45074;52.764;6.896;2022-09-03T15:08:27;3.42;;;1.23;;
59302;SDS011;45074;52.764;6.896;2022-09-03T15:11:01;3.90;;;1.15;;
59302;SDS011;45074;52.764;6.896;2022-09-03T15:13:29;2.03;;;1.10;;
59302;SDS011;45074;52.764;6.896;2022-09-03T15:16:05;3.17;;;1.00;;
59302;SDS011;45074;52.764;6.896;2022-09-03T15:26:29;5.10;;;1.20;;
59302;SDS011;45074;52.764;6.896;2022-09-03T15:34:14;1.80;;;1.10;;
59302;SDS011;45074;52.764;6.896;2022-09-03T15:36:42;3.10;;;1.10;;
59302;SDS011;45074;52.764;6.896;2022-09-03T15:39:32;4.15;;;2.20;;
59302;SDS011;45074;52.764;6.896;2022-09-03T15:42:06;2.95;;;1.40;;
59302;SDS011;45074;52.764;6.896;2022-09-03T15:44:39;3.83;;;1.50;;
59302;SDS011;45074;52.764;6.896;2022-09-03T15:47:13;2.53;;;1.25;;
59302;SDS011;45074;52.764;6.896;2022-09-03T15:50:07;4.05;;;1.30;;
59302;SDS011;45074;52.764;6.896;2022-09-03T15:52:44;2.67;;;1.30;;
59302;SDS011;45074;52.764;6.896;2022-09-03T15:55:25;2.28;;;1.10;;
59302;SDS011;45074;52.764;6.896;2022-09-03T15:57:56;3.58;;;1.40;;
59302;SDS011;45074;52.764;6.896;2022-09-03T16:00:33;3.22;;;1.30;;
59302;SDS011;45074;52.764;6.896;2022-09-03T16:03:07;9.07;;;4.53;;
59302;SDS011;45074;52.764;6.896;2022-09-03T16:05:38;4.93;;;1.90;;
59302;SDS011;45074;52.764;6.896;2022-09-03T16:10:40;2.90;;;1.20;;
59302;SDS011;45074;52.764;6.896;2022-09-03T16:13:11;2.15;;;1.27;;
59302;SDS011;45074;52.764;6.896;2022-09-03T16:15:51;2.25;;;1.30;;
59302;SDS011;45074;52.764;6.896;2022-09-03T16:21:02;7.22;;;2.40;;
59302;SDS011;45074;52.764;6.896;2022-09-03T16:23:51;8.00;;;2.80;;
59302;SDS011;45074;52.764;6.896;2022-09-03T16:28:54;3.42;;;1.38;;
59302;SDS011;45074;52.764;6.896;2022-09-03T16:34:02;7.47;;;2.65;;
59302;SDS011;45074;52.764;6.896;2022-09-03T16:41:57;2.63;;;1.33;;
59302;SDS011;45074;52.764;6.896;2022-09-03T16:47:43;3.90;;;1.40;;
59302;SDS011;45074;52.764;6.896;2022-09-03T16:53:25;3.80;;;1.30;;
59302;SDS011;45074;52.764;6.896;2022-09-03T17:15:29;2.55;;;1.55;;
59302;SDS011;45074;52.764;6.896;2022-09-03T17:21:10;2.90;;;1.40;;
59302;SDS011;45074;52.764;6.896;2022-09-03T17:35:11;5.30;;;2.63;;
59302;SDS011;45074;52.764;6.896;2022-09-03T17:40:40;2.78;;;2.00;;
59302;SDS011;45074;52.764;6.896;2022-09-03T17:46:02;4.18;;;1.80;;
59302;SDS011;45074;52.764;6.896;2022-09-03T17:48:50;3.88;;;1.67;;
59302;SDS011;45074;52.764;6.896;2022-09-03T17:54:31;3.38;;;2.08;;
59302;SDS011;45074;52.764;6.896;2022-09-03T18:02:31;4.07;;;1.50;;
59302;SDS011;45074;52.764;6.896;2022-09-03T18:07:57;4.22;;;1.52;;
59302;SDS011;45074;52.764;6.896;2022-09-03T18:10:31;3.05;;;1.45;;
59302;SDS011;45074;52.764;6.896;2022-09-03T18:13:13;2.75;;;1.60;;
59302;SDS011;45074;52.764;6.896;2022-09-03T18:15:51;2.92;;;1.35;;
59302;SDS011;45074;52.764;6.896;2022-09-03T18:18:31;2.90;;;1.60;;
59302;SDS011;45074;52.764;6.896;2022-09-03T18:21:02;3.47;;;1.70;;
59302;SDS011;45074;52.764;6.896;2022-09-03T18:24:03;3.25;;;1.52;;
59302;SDS011;45074;52.764;6.896;2022-09-03T18:26:50;3.78;;;1.52;;
59302;SDS011;45074;52.764;6.896;2022-09-03T18:29:49;3.72;;;1.60;;
59302;SDS011;45074;52.764;6.896;2022-09-03T18:32:37;3.08;;;1.70;;
59302;SDS011;45074;52.764;6.896;2022-09-03T18:35:22;4.40;;;1.70;;
59302;SDS011;45074;52.764;6.896;2022-09-03T18:38:09;6.18;;;1.65;;
59302;SDS011;45074;52.764;6.896;2022-09-03T18:40:55;4.25;;;1.60;;
59302;SDS011;45074;52.764;6.896;2022-09-03T18:44:00;5.47;;;1.75;;
59302;SDS011;45074;52.764;6.896;2022-09-03T18:55:43;3.28;;;1.85;;
59302;SDS011;45074;52.764;6.896;2022-09-03T18:59:06;3.20;;;1.70;;
59302;SDS011;45074;52.764;6.896;2022-09-03T19:01:50;8.27;;;1.85;;
59302;SDS011;45074;52.764;6.896;2022-09-03T19:07:40;3.30;;;1.83;;
59302;SDS011;45074;52.764;6.896;2022-09-03T19:10:52;3.83;;;1.67;;
59302;SDS011;45074;52.764;6.896;2022-09-03T19:13:41;5.75;;;1.77;;
59302;SDS011;45074;52.764;6.896;2022-09-03T19:22:30;4.45;;;1.65;;
59302;SDS011;45074;52.764;6.896;2022-09-03T19:25:17;4.32;;;1.70;;
59302;SDS011;45074;52.764;6.896;2022-09-03T19:31:04;4.13;;;1.70;;
59302;SDS011;45074;52.764;6.896;2022-09-03T19:34:08;5.00;;;1.60;;
59302;SDS011;45074;52.764;6.896;2022-09-03T19:37:26;4.15;;;1.67;;
59302;SDS011;45074;52.764;6.896;2022-09-03T19:44:07;6.03;;;1.67;;
59302;SDS011;45074;52.764;6.896;2022-09-03T19:47:19;4.35;;;1.88;;
59302;SDS011;45074;52.764;6.896;2022-09-03T19:50:21;2.20;;;1.50;;
59302;SDS011;45074;52.764;6.896;2022-09-03T19:53:12;3.72;;;1.75;;
59302;SDS011;45074;52.764;6.896;2022-09-03T19:56:01;4.68;;;1.77;;
59302;SDS011;45074;52.764;6.896;2022-09-03T19:58:57;3.20;;;1.60;;
59302;SDS011;45074;52.764;6.896;2022-09-03T20:01:55;3.42;;;1.75;;
59302;SDS011;45074;52.764;6.896;2022-09-03T20:04:51;4.22;;;2.00;;
59302;SDS011;45074;52.764;6.896;2022-09-03T20:07:45;4.82;;;1.80;;
59302;SDS011;45074;52.764;6.896;2022-09-03T20:10:32;5.00;;;1.40;;
59302;SDS011;45074;52.764;6.896;2022-09-03T20:21:06;3.80;;;1.77;;
59302;SDS011;45074;52.764;6.896;2022-09-03T20:45:23;5.30;;;1.80;;
59302;SDS011;45074;52.764;6.896;2022-09-03T20:48:16;4.00;;;1.90;;
59302;SDS011;45074;52.764;6.896;2022-09-03T20:51:12;5.18;;;2.00;;
59302;SDS011;45074;52.764;6.896;2022-09-03T21:10:28;5.32;;;1.88;;
59302;SDS011;45074;52.764;6.896;2022-09-03T21:13:18;3.28;;;1.65;;
59302;SDS011;45074;52.764;6.896;2022-09-03T21:22:23;4.85;;;2.22;;
59302;SDS011;45074;52.764;6.896;2022-09-03T21:25:12;3.03;;;1.70;;
59302;SDS011;45074;52.764;6.896;2022-09-03T21:27:46;5.75;;;2.10;;
59302;SDS011;45074;52.764;6.896;2022-09-03T21:30:18;4.95;;;1.85;;
59302;SDS011;45074;52.764;6.896;2022-09-03T21:32:46;4.47;;;1.90;;